sensor_id;sensor_type;location;lat;lon;timestamp;temperature;humidity
55173;DHT22;41061;52.822;6.860;2022-10-31T00:02:17;13.70;99.90
55173;DHT22;41061;52.822;6.860;2022-10-31T00:04:56;13.60;99.90
55173;DHT22;41061;52.822;6.860;2022-10-31T00:07:22;13.60;99.90
55173;DHT22;41061;52.822;6.860;2022-10-31T00:09:50;13.60;99.90
55173;DHT22;41061;52.822;6.860;2022-10-31T00:12:21;13.50;99.90
55173;DHT22;41061;52.822;6.860;2022-10-31T00:14:54;13.50;99.90
55173;DHT22;41061;52.822;6.860;2022-10-31T00:17:26;13.40;99.90
55173;DHT22;41061;52.822;6.860;2022-10-31T00:19:55;13.40;99.90
55173;DHT22;41061;52.822;6.860;2022-10-31T00:22:27;13.40;99.90
55173;DHT22;41061;52.822;6.860;2022-10-31T00:25:09;13.30;99.90
55173;DHT22;41061;52.822;6.860;2022-10-31T00:27:37;13.30;99.90
55173;DHT22;41061;52.822;6.860;2022-10-31T00:30:14;13.30;99.90
55173;DHT22;41061;52.822;6.860;2022-10-31T00:32:40;13.30;99.90
55173;DHT22;41061;52.822;6.860;2022-10-31T00:35:11;13.30;99.90
55173;DHT22;41061;52.822;6.860;2022-10-31T00:37:42;13.30;99.90
55173;DHT22;41061;52.822;6.860;2022-10-31T00:40:31;13.20;99.90
55173;DHT22;41061;52.822;6.860;2022-10-31T00:43:00;13.10;99.90
55173;DHT22;41061;52.822;6.860;2022-10-31T00:45:25;13.10;99.90
55173;DHT22;41061;52.822;6.860;2022-10-31T00:47:54;13.10;99.90
55173;DHT22;41061;52.822;6.860;2022-10-31T00:50:32;13.00;99.90
55173;DHT22;41061;52.822;6.860;2022-10-31T00:53:03;13.00;99.90
55173;DHT22;41061;52.822;6.860;2022-10-31T00:55:40;12.80;99.90
55173;DHT22;41061;52.822;6.860;2022-10-31T00:58:24;12.90;99.90
55173;DHT22;41061;52.822;6.860;2022-10-31T01:00:50;12.80;99.90
55173;DHT22;41061;52.822;6.860;2022-10-31T01:03:34;12.80;99.90
55173;DHT22;41061;52.822;6.860;2022-10-31T01:06:13;12.80;99.90
55173;DHT22;41061;52.822;6.860;2022-10-31T01:08:52;12.70;99.90
55173;DHT22;41061;52.822;6.860;2022-10-31T01:11:22;12.60;99.90
55173;DHT22;41061;52.822;6.860;2022-10-31T01:14:01;12.70;99.90
55173;DHT22;41061;52.822;6.860;2022-10-31T01:16:30;12.60;99.90
55173;DHT22;41061;52.822;6.860;2022-10-31T01:18:56;12.60;99.90
55173;DHT22;41061;52.822;6.860;2022-10-31T01:21:48;12.60;99.90
55173;DHT22;41061;52.822;6.860;2022-10-31T01:24:16;12.60;99.90
55173;DHT22;41061;52.822;6.860;2022-10-31T01:27:05;12.60;99.90
55173;DHT22;41061;52.822;6.860;2022-10-31T01:29:34;12.50;99.90
55173;DHT22;41061;52.822;6.860;2022-10-31T01:32:35;12.40;99.90
55173;DHT22;41061;52.822;6.860;2022-10-31T01:35:12;12.40;99.90
55173;DHT22;41061;52.822;6.860;2022-10-31T01:37:59;12.40;99.90
55173;DHT22;41061;52.822;6.860;2022-10-31T01:40:40;12.40;99.90
55173;DHT22;41061;52.822;6.860;2022-10-31T01:43:47;12.40;99.90
55173;DHT22;41061;52.822;6.860;2022-10-31T01:46:40;12.40;99.90
55173;DHT22;41061;52.822;6.860;2022-10-31T01:51:58;12.50;99.90
55173;DHT22;41061;52.822;6.860;2022-10-31T01:54:42;12.50;99.90
55173;DHT22;41061;52.822;6.860;2022-10-31T01:57:28;12.60;99.90
55173;DHT22;41061;52.822;6.860;2022-10-31T02:00:17;12.60;99.90
55173;DHT22;41061;52.822;6.860;2022-10-31T02:09:15;12.50;99.90
55173;DHT22;41061;52.822;6.860;2022-10-31T02:12:12;12.40;99.90
55173;DHT22;41061;52.822;6.860;2022-10-31T02:14:59;12.40;99.90
55173;DHT22;41061;52.822;6.860;2022-10-31T02:21:28;12.30;99.90
55173;DHT22;41061;52.822;6.860;2022-10-31T02:24:32;12.30;99.90
55173;DHT22;41061;52.822;6.860;2022-10-31T02:30:52;12.20;99.90
55173;DHT22;41061;52.822;6.860;2022-10-31T02:37:24;12.20;99.90
55173;DHT22;41061;52.822;6.860;2022-10-31T02:39:59;12.20;99.90
55173;DHT22;41061;52.822;6.860;2022-10-31T02:45:55;12.00;99.90
55173;DHT22;41061;52.822;6.860;2022-10-31T02:48:31;12.00;99.90
55173;DHT22;41061;52.822;6.860;2022-10-31T02:51:35;11.90;99.90
55173;DHT22;41061;52.822;6.860;2022-10-31T02:54:21;11.90;99.90
55173;DHT22;41061;52.822;6.860;2022-10-31T02:56:47;11.90;99.90
55173;DHT22;41061;52.822;6.860;2022-10-31T02:59:23;11.80;99.90
55173;DHT22;41061;52.822;6.860;2022-10-31T03:09:32;11.70;99.90
55173;DHT22;41061;52.822;6.860;2022-10-31T03:23:46;11.40;99.90
55173;DHT22;41061;52.822;6.860;2022-10-31T03:26:40;11.40;99.90
55173;DHT22;41061;52.822;6.860;2022-10-31T03:29:35;11.30;99.90
55173;DHT22;41061;52.822;6.860;2022-10-31T03:32:17;11.30;99.90
55173;DHT22;41061;52.822;6.860;2022-10-31T03:34:47;11.30;99.90
55173;DHT22;41061;52.822;6.860;2022-10-31T03:37:20;11.40;99.90
55173;DHT22;41061;52.822;6.860;2022-10-31T03:40:03;11.30;99.90
55173;DHT22;41061;52.822;6.860;2022-10-31T03:46:01;11.20;99.90
55173;DHT22;41061;52.822;6.860;2022-10-31T03:48:33;11.20;99.90
55173;DHT22;41061;52.822;6.860;2022-10-31T03:54:09;11.20;99.90
55173;DHT22;41061;52.822;6.860;2022-10-31T03:57:02;11.20;99.90
55173;DHT22;41061;52.822;6.860;2022-10-31T04:00:00;11.10;99.90
55173;DHT22;41061;52.822;6.860;2022-10-31T04:02:36;11.10;99.90
55173;DHT22;41061;52.822;6.860;2022-10-31T04:05:30;11.10;99.90
55173;DHT22;41061;52.822;6.860;2022-10-31T04:08:16;11.00;99.90
55173;DHT22;41061;52.822;6.860;2022-10-31T04:11:08;11.00;99.90
55173;DHT22;41061;52.822;6.860;2022-10-31T04:13:58;11.00;99.90
55173;DHT22;41061;52.822;6.860;2022-10-31T04:19:42;10.90;99.90
55173;DHT22;41061;52.822;6.860;2022-10-31T04:22:39;10.80;99.90
55173;DHT22;41061;52.822;6.860;2022-10-31T04:27:53;10.70;99.90
55173;DHT22;41061;52.822;6.860;2022-10-31T04:30:27;10.70;99.90
55173;DHT22;41061;52.822;6.860;2022-10-31T04:33:11;10.70;99.90
55173;DHT22;41061;52.822;6.860;2022-10-31T04:39:10;10.60;99.90
55173;DHT22;41061;52.822;6.860;2022-10-31T04:41:54;10.60;99.90
55173;DHT22;41061;52.822;6.860;2022-10-31T04:44:26;10.60;99.90
55173;DHT22;41061;52.822;6.860;2022-10-31T04:47:17;10.50;99.90
55173;DHT22;41061;52.822;6.860;2022-10-31T04:49:51;10.50;99.90
55173;DHT22;41061;52.822;6.860;2022-10-31T04:52:21;10.50;99.90
55173;DHT22;41061;52.822;6.860;2022-10-31T04:55:22;10.50;99.90
55173;DHT22;41061;52.822;6.860;2022-10-31T04:58:14;10.50;99.90
55173;DHT22;41061;52.822;6.860;2022-10-31T05:00:57;10.50;99.90
55173;DHT22;41061;52.822;6.860;2022-10-31T05:03:25;10.40;99.90
55173;DHT22;41061;52.822;6.860;2022-10-31T05:06:10;10.30;99.90
55173;DHT22;41061;52.822;6.860;2022-10-31T05:08:51;10.30;99.90
55173;DHT22;41061;52.822;6.860;2022-10-31T05:14:41;10.20;99.90
55173;DHT22;41061;52.822;6.860;2022-10-31T05:19:58;10.20;99.90
55173;DHT22;41061;52.822;6.860;2022-10-31T05:22:26;10.10;99.90
55173;DHT22;41061;52.822;6.860;2022-10-31T05:25:39;10.10;99.90
55173;DHT22;41061;52.822;6.860;2022-10-31T05:28:07;10.00;99.90
55173;DHT22;41061;52.822;6.860;2022-10-31T05:33:46;10.00;99.90
55173;DHT22;41061;52.822;6.860;2022-10-31T05:36:20;9.90;99.90
55173;DHT22;41061;52.822;6.860;2022-10-31T05:38:58;9.90;99.90
55173;DHT22;41061;52.822;6.860;2022-10-31T05:41:33;9.80;99.90
55173;DHT22;41061;52.822;6.860;2022-10-31T05:44:30;9.80;99.90
55173;DHT22;41061;52.822;6.860;2022-10-31T05:47:02;9.80;99.90
55173;DHT22;41061;52.822;6.860;2022-10-31T05:49:37;10.40;99.90
55173;DHT22;41061;52.822;6.860;2022-10-31T05:52:17;9.90;99.90
55173;DHT22;41061;52.822;6.860;2022-10-31T05:54:46;9.90;99.90
55173;DHT22;41061;52.822;6.860;2022-10-31T05:57:31;10.00;99.90
55173;DHT22;41061;52.822;6.860;2022-10-31T06:00:26;10.00;99.90
55173;DHT22;41061;52.822;6.860;2022-10-31T06:03:00;10.00;99.90
55173;DHT22;41061;52.822;6.860;2022-10-31T06:05:56;10.10;99.90
55173;DHT22;41061;52.822;6.860;2022-10-31T06:08:31;10.10;99.90
55173;DHT22;41061;52.822;6.860;2022-10-31T06:11:24;9.90;99.90
55173;DHT22;41061;52.822;6.860;2022-10-31T06:13:55;10.10;99.90
55173;DHT22;41061;52.822;6.860;2022-10-31T06:16:35;9.90;99.90
55173;DHT22;41061;52.822;6.860;2022-10-31T06:19:19;9.50;99.90
55173;DHT22;41061;52.822;6.860;2022-10-31T06:21:59;10.10;99.90
55173;DHT22;41061;52.822;6.860;2022-10-31T06:25:11;10.00;99.90
55173;DHT22;41061;52.822;6.860;2022-10-31T06:28:10;9.90;99.90
55173;DHT22;41061;52.822;6.860;2022-10-31T06:33:57;10.50;99.90
55173;DHT22;41061;52.822;6.860;2022-10-31T06:36:46;9.90;99.90
55173;DHT22;41061;52.822;6.860;2022-10-31T06:39:23;10.40;99.90
55173;DHT22;41061;52.822;6.860;2022-10-31T06:41:54;10.00;99.90
55173;DHT22;41061;52.822;6.860;2022-10-31T06:44:25;9.60;99.90
55173;DHT22;41061;52.822;6.860;2022-10-31T06:49:41;9.60;99.90
55173;DHT22;41061;52.822;6.860;2022-10-31T06:55:18;9.80;99.90
55173;DHT22;41061;52.822;6.860;2022-10-31T06:57:55;10.00;99.90
55173;DHT22;41061;52.822;6.860;2022-10-31T07:01:00;10.30;99.90
55173;DHT22;41061;52.822;6.860;2022-10-31T07:03:31;9.40;99.90
55173;DHT22;41061;52.822;6.860;2022-10-31T07:06:12;10.40;99.90
55173;DHT22;41061;52.822;6.860;2022-10-31T07:08:41;10.00;99.90
55173;DHT22;41061;52.822;6.860;2022-10-31T07:11:46;9.80;99.90
55173;DHT22;41061;52.822;6.860;2022-10-31T07:14:24;9.90;99.90
55173;DHT22;41061;52.822;6.860;2022-10-31T07:17:01;9.80;99.90
55173;DHT22;41061;52.822;6.860;2022-10-31T07:19:57;9.80;99.90
55173;DHT22;41061;52.822;6.860;2022-10-31T07:22:35;9.70;99.90
55173;DHT22;41061;52.822;6.860;2022-10-31T07:25:24;9.70;99.90
55173;DHT22;41061;52.822;6.860;2022-10-31T07:28:09;9.60;99.90
55173;DHT22;41061;52.822;6.860;2022-10-31T07:31:00;9.60;99.90
55173;DHT22;41061;52.822;6.860;2022-10-31T07:33:37;9.60;99.90
55173;DHT22;41061;52.822;6.860;2022-10-31T07:36:17;9.70;99.90
55173;DHT22;41061;52.822;6.860;2022-10-31T07:38:46;9.60;99.90
55173;DHT22;41061;52.822;6.860;2022-10-31T07:41:24;9.70;99.90
55173;DHT22;41061;52.822;6.860;2022-10-31T07:44:12;9.70;99.90
55173;DHT22;41061;52.822;6.860;2022-10-31T07:47:01;9.70;99.90
55173;DHT22;41061;52.822;6.860;2022-10-31T07:49:48;10.00;99.90
55173;DHT22;41061;52.822;6.860;2022-10-31T07:52:48;9.80;99.90
55173;DHT22;41061;52.822;6.860;2022-10-31T07:55:53;9.90;99.90
55173;DHT22;41061;52.822;6.860;2022-10-31T07:58:48;9.90;99.90
55173;DHT22;41061;52.822;6.860;2022-10-31T08:01:46;10.00;99.90
55173;DHT22;41061;52.822;6.860;2022-10-31T08:04:43;10.10;99.90
55173;DHT22;41061;52.822;6.860;2022-10-31T08:07:36;10.20;99.90
55173;DHT22;41061;52.822;6.860;2022-10-31T08:10:26;10.60;99.90
55173;DHT22;41061;52.822;6.860;2022-10-31T08:13:11;10.80;99.90
55173;DHT22;41061;52.822;6.860;2022-10-31T08:18:45;11.90;99.90
55173;DHT22;41061;52.822;6.860;2022-10-31T08:21:46;11.50;99.90
55173;DHT22;41061;52.822;6.860;2022-10-31T08:24:35;11.10;99.90
55173;DHT22;41061;52.822;6.860;2022-10-31T08:27:26;11.10;99.90
55173;DHT22;41061;52.822;6.860;2022-10-31T08:30:25;11.20;99.90
55173;DHT22;41061;52.822;6.860;2022-10-31T08:33:16;11.30;99.90
55173;DHT22;41061;52.822;6.860;2022-10-31T08:36:16;11.40;99.90
55173;DHT22;41061;52.822;6.860;2022-10-31T08:38:46;11.50;99.90
55173;DHT22;41061;52.822;6.860;2022-10-31T08:41:27;11.60;99.90
55173;DHT22;41061;52.822;6.860;2022-10-31T08:43:55;11.80;99.90
55173;DHT22;41061;52.822;6.860;2022-10-31T08:46:30;11.90;99.90
55173;DHT22;41061;52.822;6.860;2022-10-31T08:49:03;12.00;99.90
55173;DHT22;41061;52.822;6.860;2022-10-31T08:51:47;12.20;99.90
55173;DHT22;41061;52.822;6.860;2022-10-31T08:54:18;12.20;99.90
55173;DHT22;41061;52.822;6.860;2022-10-31T08:57:04;12.40;99.90
55173;DHT22;41061;52.822;6.860;2022-10-31T09:02:27;12.60;99.90
55173;DHT22;41061;52.822;6.860;2022-10-31T09:05:27;12.70;99.90
55173;DHT22;41061;52.822;6.860;2022-10-31T09:07:57;12.80;99.90
55173;DHT22;41061;52.822;6.860;2022-10-31T09:10:45;12.80;99.90
55173;DHT22;41061;52.822;6.860;2022-10-31T09:13:22;12.70;99.90
55173;DHT22;41061;52.822;6.860;2022-10-31T09:15:56;12.90;99.90
55173;DHT22;41061;52.822;6.860;2022-10-31T09:18:25;12.90;99.90
55173;DHT22;41061;52.822;6.860;2022-10-31T09:20:53;12.90;99.90
55173;DHT22;41061;52.822;6.860;2022-10-31T09:23:33;13.00;99.90
55173;DHT22;41061;52.822;6.860;2022-10-31T09:26:43;13.00;99.90
55173;DHT22;41061;52.822;6.860;2022-10-31T09:29:38;13.10;99.90
55173;DHT22;41061;52.822;6.860;2022-10-31T09:32:04;13.10;99.90
55173;DHT22;41061;52.822;6.860;2022-10-31T09:34:40;13.10;99.90
55173;DHT22;41061;52.822;6.860;2022-10-31T09:37:15;13.10;99.90
55173;DHT22;41061;52.822;6.860;2022-10-31T09:43:07;13.10;99.90
55173;DHT22;41061;52.822;6.860;2022-10-31T09:51:35;13.10;99.90
55173;DHT22;41061;52.822;6.860;2022-10-31T09:57:12;13.30;99.90
55173;DHT22;41061;52.822;6.860;2022-10-31T09:59:43;13.30;99.90
55173;DHT22;41061;52.822;6.860;2022-10-31T10:08:25;13.50;99.90
55173;DHT22;41061;52.822;6.860;2022-10-31T10:17:00;13.70;99.90
55173;DHT22;41061;52.822;6.860;2022-10-31T10:22:27;13.90;99.90
55173;DHT22;41061;52.822;6.860;2022-10-31T10:25:28;14.00;99.90
55173;DHT22;41061;52.822;6.860;2022-10-31T10:28:49;14.10;99.90
55173;DHT22;41061;52.822;6.860;2022-10-31T10:31:26;14.20;99.90
55173;DHT22;41061;52.822;6.860;2022-10-31T10:34:24;14.30;99.90
55173;DHT22;41061;52.822;6.860;2022-10-31T10:40:23;14.50;99.90
55173;DHT22;41061;52.822;6.860;2022-10-31T10:49:32;14.60;99.90
55173;DHT22;41061;52.822;6.860;2022-10-31T10:55:41;14.60;99.90
55173;DHT22;41061;52.822;6.860;2022-10-31T10:58:14;14.60;99.90
55173;DHT22;41061;52.822;6.860;2022-10-31T11:01:10;14.60;99.90
55173;DHT22;41061;52.822;6.860;2022-10-31T11:03:42;14.60;99.90
55173;DHT22;41061;52.822;6.860;2022-10-31T11:06:31;14.70;99.90
55173;DHT22;41061;52.822;6.860;2022-10-31T11:09:10;14.80;99.90
55173;DHT22;41061;52.822;6.860;2022-10-31T11:12:17;14.80;99.90
55173;DHT22;41061;52.822;6.860;2022-10-31T11:15:24;14.90;99.90
55173;DHT22;41061;52.822;6.860;2022-10-31T11:18:12;15.00;99.90
55173;DHT22;41061;52.822;6.860;2022-10-31T11:20:57;15.00;99.90
55173;DHT22;41061;52.822;6.860;2022-10-31T11:23:39;14.90;99.90
55173;DHT22;41061;52.822;6.860;2022-10-31T11:26:19;14.90;99.90
55173;DHT22;41061;52.822;6.860;2022-10-31T11:28:59;14.90;99.90
55173;DHT22;41061;52.822;6.860;2022-10-31T11:31:46;14.90;99.90
55173;DHT22;41061;52.822;6.860;2022-10-31T11:34:43;15.00;99.90
55173;DHT22;41061;52.822;6.860;2022-10-31T11:37:41;14.90;99.90
55173;DHT22;41061;52.822;6.860;2022-10-31T11:40:24;14.90;99.90
55173;DHT22;41061;52.822;6.860;2022-10-31T11:43:12;15.00;99.90
55173;DHT22;41061;52.822;6.860;2022-10-31T11:45:46;15.00;99.90
55173;DHT22;41061;52.822;6.860;2022-10-31T11:48:17;15.10;99.90
55173;DHT22;41061;52.822;6.860;2022-10-31T11:50:51;15.10;99.90
55173;DHT22;41061;52.822;6.860;2022-10-31T11:53:32;15.20;99.90
55173;DHT22;41061;52.822;6.860;2022-10-31T11:56:13;15.30;99.90
55173;DHT22;41061;52.822;6.860;2022-10-31T11:58:39;15.30;99.90
55173;DHT22;41061;52.822;6.860;2022-10-31T12:01:29;15.30;99.90
55173;DHT22;41061;52.822;6.860;2022-10-31T12:04:13;15.40;99.90
55173;DHT22;41061;52.822;6.860;2022-10-31T12:09:32;15.50;99.90
55173;DHT22;41061;52.822;6.860;2022-10-31T12:27:23;15.50;99.90
55173;DHT22;41061;52.822;6.860;2022-10-31T12:30:14;15.50;99.90
55173;DHT22;41061;52.822;6.860;2022-10-31T12:35:36;15.50;99.90
55173;DHT22;41061;52.822;6.860;2022-10-31T12:44:11;15.60;99.90
55173;DHT22;41061;52.822;6.860;2022-10-31T12:50:13;15.70;99.90
55173;DHT22;41061;52.822;6.860;2022-10-31T13:02:15;16.00;99.90
55173;DHT22;41061;52.822;6.860;2022-10-31T13:05:05;16.00;99.90
55173;DHT22;41061;52.822;6.860;2022-10-31T13:07:48;16.00;99.90
55173;DHT22;41061;52.822;6.860;2022-10-31T13:10:31;16.10;99.90
55173;DHT22;41061;52.822;6.860;2022-10-31T13:15:49;16.20;99.90
55173;DHT22;41061;52.822;6.860;2022-10-31T13:18:31;16.10;99.90
55173;DHT22;41061;52.822;6.860;2022-10-31T13:21:09;16.10;99.90
55173;DHT22;41061;52.822;6.860;2022-10-31T13:23:40;16.10;99.90
55173;DHT22;41061;52.822;6.860;2022-10-31T13:30:10;16.00;99.90
55173;DHT22;41061;52.822;6.860;2022-10-31T13:32:44;16.00;99.90
55173;DHT22;41061;52.822;6.860;2022-10-31T13:35:32;16.00;99.90
55173;DHT22;41061;52.822;6.860;2022-10-31T13:41:36;16.00;99.90
55173;DHT22;41061;52.822;6.860;2022-10-31T13:44:34;16.10;99.90
55173;DHT22;41061;52.822;6.860;2022-10-31T13:47:54;16.10;99.90
55173;DHT22;41061;52.822;6.860;2022-10-31T13:50:25;16.10;99.90
55173;DHT22;41061;52.822;6.860;2022-10-31T13:52:52;16.10;99.90
55173;DHT22;41061;52.822;6.860;2022-10-31T13:55:45;16.10;99.90
55173;DHT22;41061;52.822;6.860;2022-10-31T13:58:21;16.00;99.90
55173;DHT22;41061;52.822;6.860;2022-10-31T14:09:41;15.80;99.90
55173;DHT22;41061;52.822;6.860;2022-10-31T14:12:45;15.80;99.90
55173;DHT22;41061;52.822;6.860;2022-10-31T14:15:22;15.80;99.90
55173;DHT22;41061;52.822;6.860;2022-10-31T14:17:52;15.80;99.90
55173;DHT22;41061;52.822;6.860;2022-10-31T14:20:32;15.70;99.90
55173;DHT22;41061;52.822;6.860;2022-10-31T14:23:09;15.60;99.90
55173;DHT22;41061;52.822;6.860;2022-10-31T14:25:40;15.70;99.90
55173;DHT22;41061;52.822;6.860;2022-10-31T14:28:35;15.60;99.90
55173;DHT22;41061;52.822;6.860;2022-10-31T14:50:47;15.40;99.90
55173;DHT22;41061;52.822;6.860;2022-10-31T14:56:02;15.40;99.90
55173;DHT22;41061;52.822;6.860;2022-10-31T15:01:33;15.30;99.90
55173;DHT22;41061;52.822;6.860;2022-10-31T15:04:24;15.30;99.90
55173;DHT22;41061;52.822;6.860;2022-10-31T15:07:15;15.30;99.90
55173;DHT22;41061;52.822;6.860;2022-10-31T15:09:44;15.30;99.90
55173;DHT22;41061;52.822;6.860;2022-10-31T15:12:41;15.20;99.90
55173;DHT22;41061;52.822;6.860;2022-10-31T15:15:23;15.20;99.90
55173;DHT22;41061;52.822;6.860;2022-10-31T15:17:59;15.20;99.90
55173;DHT22;41061;52.822;6.860;2022-10-31T15:23:35;15.20;99.90
55173;DHT22;41061;52.822;6.860;2022-10-31T15:26:20;15.10;99.90
55173;DHT22;41061;52.822;6.860;2022-10-31T15:29:01;15.10;99.90
55173;DHT22;41061;52.822;6.860;2022-10-31T15:31:38;15.10;99.90
55173;DHT22;41061;52.822;6.860;2022-10-31T15:34:32;15.00;99.90
55173;DHT22;41061;52.822;6.860;2022-10-31T15:37:13;15.00;99.90
55173;DHT22;41061;52.822;6.860;2022-10-31T15:39:48;14.90;99.90
55173;DHT22;41061;52.822;6.860;2022-10-31T15:42:34;14.90;99.90
55173;DHT22;41061;52.822;6.860;2022-10-31T15:48:00;14.90;99.90
55173;DHT22;41061;52.822;6.860;2022-10-31T15:50:45;14.80;99.90
55173;DHT22;41061;52.822;6.860;2022-10-31T15:53:49;14.80;99.90
55173;DHT22;41061;52.822;6.860;2022-10-31T15:56:34;14.80;99.90
55173;DHT22;41061;52.822;6.860;2022-10-31T15:59:04;14.70;99.90
55173;DHT22;41061;52.822;6.860;2022-10-31T16:01:53;14.70;99.90
55173;DHT22;41061;52.822;6.860;2022-10-31T16:04:22;14.60;99.90
55173;DHT22;41061;52.822;6.860;2022-10-31T16:07:13;14.60;99.90
55173;DHT22;41061;52.822;6.860;2022-10-31T16:12:53;14.40;99.90
55173;DHT22;41061;52.822;6.860;2022-10-31T16:15:52;14.40;99.90
55173;DHT22;41061;52.822;6.860;2022-10-31T16:18:34;14.30;99.90
55173;DHT22;41061;52.822;6.860;2022-10-31T16:28:01;14.20;99.90
55173;DHT22;41061;52.822;6.860;2022-10-31T16:35:17;14.20;99.90
55173;DHT22;41061;52.822;6.860;2022-10-31T16:37:45;14.20;99.90
55173;DHT22;41061;52.822;6.860;2022-10-31T16:40:15;14.10;99.90
55173;DHT22;41061;52.822;6.860;2022-10-31T16:42:53;14.20;99.90
55173;DHT22;41061;52.822;6.860;2022-10-31T16:45:28;14.30;99.90
55173;DHT22;41061;52.822;6.860;2022-10-31T16:48:23;14.20;99.90
55173;DHT22;41061;52.822;6.860;2022-10-31T16:50:50;14.10;99.90
55173;DHT22;41061;52.822;6.860;2022-10-31T16:53:46;14.20;99.90
55173;DHT22;41061;52.822;6.860;2022-10-31T16:56:26;14.30;99.90
55173;DHT22;41061;52.822;6.860;2022-10-31T16:58:56;14.20;99.90
55173;DHT22;41061;52.822;6.860;2022-10-31T17:01:24;14.30;99.90
55173;DHT22;41061;52.822;6.860;2022-10-31T17:03:58;14.20;99.90
55173;DHT22;41061;52.822;6.860;2022-10-31T17:06:29;14.20;99.90
55173;DHT22;41061;52.822;6.860;2022-10-31T17:08:55;14.20;99.90
55173;DHT22;41061;52.822;6.860;2022-10-31T17:11:39;14.20;99.90
55173;DHT22;41061;52.822;6.860;2022-10-31T17:14:27;14.20;99.90
55173;DHT22;41061;52.822;6.860;2022-10-31T17:16:56;14.20;99.90
55173;DHT22;41061;52.822;6.860;2022-10-31T17:19:31;14.30;99.90
55173;DHT22;41061;52.822;6.860;2022-10-31T17:22:04;14.20;99.90
55173;DHT22;41061;52.822;6.860;2022-10-31T17:24:35;14.30;99.90
55173;DHT22;41061;52.822;6.860;2022-10-31T17:27:12;14.30;99.90
55173;DHT22;41061;52.822;6.860;2022-10-31T17:29:43;14.30;99.90
55173;DHT22;41061;52.822;6.860;2022-10-31T17:32:22;14.20;99.90
55173;DHT22;41061;52.822;6.860;2022-10-31T17:35:10;14.20;99.90
55173;DHT22;41061;52.822;6.860;2022-10-31T17:37:35;14.20;99.90
55173;DHT22;41061;52.822;6.860;2022-10-31T17:40:20;14.30;99.90
55173;DHT22;41061;52.822;6.860;2022-10-31T17:42:53;14.30;99.90
55173;DHT22;41061;52.822;6.860;2022-10-31T17:45:22;14.40;99.90
55173;DHT22;41061;52.822;6.860;2022-10-31T17:48:14;14.30;99.90
55173;DHT22;41061;52.822;6.860;2022-10-31T17:50:42;14.30;99.90
55173;DHT22;41061;52.822;6.860;2022-10-31T17:53:11;14.30;99.90
55173;DHT22;41061;52.822;6.860;2022-10-31T17:55:45;14.30;99.90
55173;DHT22;41061;52.822;6.860;2022-10-31T17:58:22;14.30;99.90
55173;DHT22;41061;52.822;6.860;2022-10-31T18:00:59;14.20;99.90
55173;DHT22;41061;52.822;6.860;2022-10-31T18:03:42;14.30;99.90
55173;DHT22;41061;52.822;6.860;2022-10-31T18:06:17;14.40;99.90
55173;DHT22;41061;52.822;6.860;2022-10-31T18:08:49;14.40;99.90
55173;DHT22;41061;52.822;6.860;2022-10-31T18:11:20;14.40;99.90
55173;DHT22;41061;52.822;6.860;2022-10-31T18:13:55;14.40;99.90
55173;DHT22;41061;52.822;6.860;2022-10-31T18:16:50;14.40;99.90
55173;DHT22;41061;52.822;6.860;2022-10-31T18:19:22;14.40;99.90
55173;DHT22;41061;52.822;6.860;2022-10-31T18:21:53;14.40;99.90
55173;DHT22;41061;52.822;6.860;2022-10-31T18:27:19;14.50;99.90
55173;DHT22;41061;52.822;6.860;2022-10-31T18:29:48;14.40;99.90
55173;DHT22;41061;52.822;6.860;2022-10-31T18:32:26;14.50;99.90
55173;DHT22;41061;52.822;6.860;2022-10-31T18:34:57;14.50;99.90
55173;DHT22;41061;52.822;6.860;2022-10-31T18:37:37;14.50;99.90
55173;DHT22;41061;52.822;6.860;2022-10-31T18:40:14;14.50;99.90
55173;DHT22;41061;52.822;6.860;2022-10-31T18:42:46;14.50;99.90
55173;DHT22;41061;52.822;6.860;2022-10-31T18:45:46;14.50;99.90
55173;DHT22;41061;52.822;6.860;2022-10-31T18:48:43;14.60;99.90
55173;DHT22;41061;52.822;6.860;2022-10-31T18:51:27;14.60;99.90
55173;DHT22;41061;52.822;6.860;2022-10-31T18:54:31;14.60;99.90
55173;DHT22;41061;52.822;6.860;2022-10-31T18:59:48;14.50;99.90
55173;DHT22;41061;52.822;6.860;2022-10-31T19:02:23;14.50;99.90
55173;DHT22;41061;52.822;6.860;2022-10-31T19:05:12;14.50;99.90
55173;DHT22;41061;52.822;6.860;2022-10-31T19:07:58;14.50;99.90
55173;DHT22;41061;52.822;6.860;2022-10-31T19:10:32;14.50;99.90
55173;DHT22;41061;52.822;6.860;2022-10-31T19:12:59;14.50;99.90
55173;DHT22;41061;52.822;6.860;2022-10-31T19:15:25;14.60;99.90
55173;DHT22;41061;52.822;6.860;2022-10-31T19:17:51;14.60;99.90
55173;DHT22;41061;52.822;6.860;2022-10-31T19:23:52;14.60;99.90
55173;DHT22;41061;52.822;6.860;2022-10-31T19:26:21;14.70;99.90
55173;DHT22;41061;52.822;6.860;2022-10-31T19:29:08;14.60;99.90
55173;DHT22;41061;52.822;6.860;2022-10-31T19:31:50;14.60;99.90
55173;DHT22;41061;52.822;6.860;2022-10-31T19:34:39;14.70;99.90
55173;DHT22;41061;52.822;6.860;2022-10-31T19:37:11;14.60;99.90
55173;DHT22;41061;52.822;6.860;2022-10-31T19:39:54;14.60;99.90
55173;DHT22;41061;52.822;6.860;2022-10-31T19:42:23;14.70;99.90
55173;DHT22;41061;52.822;6.860;2022-10-31T19:45:03;14.70;99.90
55173;DHT22;41061;52.822;6.860;2022-10-31T19:47:29;14.70;99.90
55173;DHT22;41061;52.822;6.860;2022-10-31T19:50:03;14.70;99.90
55173;DHT22;41061;52.822;6.860;2022-10-31T19:52:43;14.70;99.90
55173;DHT22;41061;52.822;6.860;2022-10-31T19:55:15;14.70;99.90
55173;DHT22;41061;52.822;6.860;2022-10-31T19:57:41;14.70;99.90
55173;DHT22;41061;52.822;6.860;2022-10-31T20:00:09;14.70;99.90
55173;DHT22;41061;52.822;6.860;2022-10-31T20:02:41;14.70;99.90
55173;DHT22;41061;52.822;6.860;2022-10-31T20:05:12;14.70;99.90
55173;DHT22;41061;52.822;6.860;2022-10-31T20:07:43;14.70;99.90
55173;DHT22;41061;52.822;6.860;2022-10-31T20:10:09;14.60;99.90
55173;DHT22;41061;52.822;6.860;2022-10-31T20:12:35;14.60;99.90
55173;DHT22;41061;52.822;6.860;2022-10-31T20:15:01;14.60;99.90
55173;DHT22;41061;52.822;6.860;2022-10-31T20:17:26;14.60;99.90
55173;DHT22;41061;52.822;6.860;2022-10-31T20:20:01;14.50;99.90
55173;DHT22;41061;52.822;6.860;2022-10-31T20:25:45;14.60;99.90
55173;DHT22;41061;52.822;6.860;2022-10-31T20:28:29;14.50;99.90
55173;DHT22;41061;52.822;6.860;2022-10-31T20:31:14;14.50;99.90
55173;DHT22;41061;52.822;6.860;2022-10-31T20:33:40;14.50;99.90
55173;DHT22;41061;52.822;6.860;2022-10-31T20:36:26;14.50;99.90
55173;DHT22;41061;52.822;6.860;2022-10-31T20:39:05;14.50;99.90
55173;DHT22;41061;52.822;6.860;2022-10-31T20:41:50;14.50;99.90
55173;DHT22;41061;52.822;6.860;2022-10-31T20:44:23;14.60;99.90
55173;DHT22;41061;52.822;6.860;2022-10-31T20:46:54;14.50;99.90
55173;DHT22;41061;52.822;6.860;2022-10-31T20:49:20;14.40;99.90
55173;DHT22;41061;52.822;6.860;2022-10-31T20:51:49;14.50;99.90
55173;DHT22;41061;52.822;6.860;2022-10-31T20:54:20;14.50;99.90